Time;durP1;ratioP1;P1;durP2;ratioP2;P2;SDS_P1;SDS_P2;PMS_P1;PMS_P2;Temp;Humidity;BMP_temperature;BMP_pressure;BME280_temperature;BME280_humidity;BME280_pressure;Samples;Min_cycle;Max_cycle;Signal;HPM_P1;HPM_P2
2021/06/04 00:00:58;;;;;;;;;10.50;10.50;;;;;20.39;64.83;101817.53;5079793;28;47382;-73
2021/06/04 00:03:24;;;;;;;;;10.25;9.25;;;;;20.39;64.43;101812.19;5079109;27;45421;-73
2021/06/04 00:05:53;;;;;;;;;12.75;10.25;;;;;20.38;64.84;101805.13;5081153;27;45440;-73
2021/06/04 00:08:21;;;;;;;;;8.25;7.75;;;;;20.38;64.99;101812.25;5079781;28;45357;-73
2021/06/04 00:10:54;;;;;;;;;9.50;9.50;;;;;20.34;64.50;101830.28;5079381;28;47724;-73
2021/06/04 00:13:32;;;;;;;;;9.25;8.00;;;;;20.31;64.64;101817.97;5080769;27;45308;-73
2021/06/04 00:16:08;;;;;;;;;12.00;10.00;;;;;20.31;65.15;101833.13;5078781;28;45281;-73
2021/06/04 00:18:36;;;;;;;;;8.50;8.50;;;;;20.33;64.69;101840.09;5080771;27;45484;-73
2021/06/04 00:21:07;;;;;;;;;9.25;8.50;;;;;20.33;65.42;101840.09;5076881;27;48772;-73
2021/06/04 00:23:32;;;;;;;;;11.25;9.00;;;;;20.32;64.66;101838.38;5077714;28;45575;-75
2021/06/04 00:25:58;;;;;;;;;11.50;9.50;;;;;20.30;65.16;101839.41;5093225;27;45449;-75
2021/06/04 00:28:24;;;;;;;;;10.25;10.25;;;;;20.29;64.78;101840.38;5079751;27;45320;-74
2021/06/04 00:30:49;;;;;;;;;8.50;8.50;;;;;20.29;65.27;101840.38;5093511;27;46879;-71
2021/06/04 00:33:15;;;;;;;;;10.25;9.50;;;;;20.29;65.45;101845.69;5079879;27;45423;-71
2021/06/04 00:35:41;;;;;;;;;14.75;11.00;;;;;20.29;65.90;101843.03;5080297;27;45317;-75
2021/06/04 00:38:08;;;;;;;;;10.25;10.25;;;;;20.27;65.77;101839.59;5080529;27;45504;-75
2021/06/04 00:40:44;;;;;;;;;14.50;12.75;;;;;20.28;65.66;101841.31;5080193;27;45467;-75
2021/06/04 00:43:11;;;;;;;;;17.25;12.75;;;;;20.27;66.37;101842.28;5081863;27;45481;-75
2021/06/04 00:45:41;;;;;;;;;11.75;11.75;;;;;20.23;67.38;101847.78;5092112;27;45312;-75
2021/06/04 00:48:07;;;;;;;;;12.75;12.25;;;;;20.22;66.63;101856.72;5080022;28;45509;-75
2021/06/04 00:50:53;;;;;;;;;12.25;12.25;;;;;20.23;67.27;101857.59;5078720;27;47173;-75
2021/06/04 00:53:21;;;;;;;;;14.00;12.25;;;;;20.22;66.82;101866.56;5080048;27;45312;-76
2021/06/04 00:55:48;;;;;;;;;13.00;12.50;;;;;20.20;66.99;101890.66;5078804;28;45316;-76
2021/06/04 00:58:20;;;;;;;;;13.00;13.00;;;;;20.21;66.10;101913.72;5079710;28;45177;-76
2021/06/04 01:00:50;;;;;;;;;12.50;10.75;;;;;20.27;66.15;101925.00;5065278;27;45437;-75
2021/06/04 01:03:18;;;;;;;;;13.50;11.25;;;;;20.32;66.66;101912.28;5079090;27;45599;-75
2021/06/04 01:05:45;;;;;;;;;16.50;12.50;;;;;20.35;69.03;101893.38;5079722;27;45305;-76
2021/06/04 01:08:25;;;;;;;;;14.75;13.75;;;;;20.34;67.66;101875.66;5080214;27;45409;-75
2021/06/04 01:11:16;;;;;;;;;13.50;11.25;;;;;20.32;68.17;101889.09;5079952;27;46115;-73
2021/06/04 01:13:56;;;;;;;;;17.25;15.50;;;;;20.29;69.91;101893.75;5079253;28;45385;-74
2021/06/04 01:16:30;;;;;;;;;18.75;17.00;;;;;20.25;68.97;101887.72;5079795;28;45419;-74
2021/06/04 01:19:15;;;;;;;;;19.25;18.00;;;;;20.22;68.91;101888.75;5080417;27;45408;-74
2021/06/04 01:22:01;;;;;;;;;17.25;15.00;;;;;20.20;70.15;101881.78;5064312;27;45481;-74
2021/06/04 01:24:58;;;;;;;;;16.50;15.00;;;;;20.18;70.05;101871.19;5079272;27;45763;-74
2021/06/04 01:27:29;;;;;;;;;16.50;15.25;;;;;20.16;70.15;101861.53;5078658;28;45288;-74
2021/06/04 01:30:07;;;;;;;;;18.75;16.25;;;;;20.11;69.87;101859.13;5078722;28;45479;-74
2021/06/04 01:32:35;;;;;;;;;15.00;15.00;;;;;20.04;70.83;101863.94;5070365;28;45376;-75
2021/06/04 01:35:07;;;;;;;;;16.75;15.00;;;;;20.01;71.15;101864.09;5079386;27;45222;-76
2021/06/04 01:37:33;;;;;;;;;14.75;12.50;;;;;19.99;70.85;101876.66;5079632;27;45349;-74
2021/06/04 01:40:50;;;;;;;;;15.25;15.25;;;;;19.97;70.82;101873.22;5078124;28;45899;-75
2021/06/04 01:43:21;;;;;;;;;15.75;14.50;;;;;19.95;71.60;101869.78;5061278;28;45223;-75
2021/06/04 01:45:54;;;;;;;;;17.25;14.75;;;;;19.91;71.71;101853.06;5078394;27;45258;-75
2021/06/04 01:48:25;;;;;;;;;18.50;17.75;;;;;19.88;71.74;101848.75;5077248;28;45296;-74
2021/06/04 01:50:58;;;;;;;;;14.25;12.25;;;;;19.84;71.47;101847.22;5079194;27;45451;-75
2021/06/04 01:53:38;;;;;;;;;17.00;16.00;;;;;19.81;71.61;101842.03;5078415;27;47184;-75
2021/06/04 01:56:13;;;;;;;;;17.00;16.75;;;;;19.78;72.30;101843.06;5087455;27;45242;-75
2021/06/04 01:59:09;;;;;;;;;21.75;20.25;;;;;19.74;73.08;101852.19;5095841;27;45425;-75
2021/06/04 02:01:42;;;;;;;;;25.00;21.00;;;;;19.71;72.12;101863.03;5056560;28;46122;-74
2021/06/04 02:04:11;;;;;;;;;21.25;19.00;;;;;19.68;72.55;101845.38;5074907;27;46193;-74
2021/06/04 02:06:37;;;;;;;;;22.50;19.75;;;;;19.65;72.94;101840.25;5095013;27;46150;-74
2021/06/04 02:09:09;;;;;;;;;23.00;19.00;;;;;19.63;73.59;101831.44;5079426;27;45380;-74
2021/06/04 02:11:36;;;;;;;;;22.75;20.25;;;;;19.60;72.76;101833.41;5082695;27;45813;-74
2021/06/04 02:14:06;;;;;;;;;19.75;17.25;;;;;19.57;71.83;101839.78;5082540;27;46717;-74
2021/06/04 02:16:48;;;;;;;;;16.25;15.50;;;;;19.60;71.86;101854.75;5081532;28;46473;-72
2021/06/04 02:19:38;;;;;;;;;22.50;21.50;;;;;19.63;71.55;101865.25;5082263;27;45385;-74
2021/06/04 02:22:12;;;;;;;;;20.75;20.50;;;;;19.65;71.63;101868.69;5082856;27;45275;-74
2021/06/04 02:24:44;;;;;;;;;24.00;22.50;;;;;19.66;72.91;101871.28;5082469;27;45253;-74
2021/06/04 02:27:18;;;;;;;;;25.50;21.25;;;;;19.66;72.40;101881.06;5082327;27;45892;-74
2021/06/04 02:29:59;;;;;;;;;17.00;17.00;;;;;19.62;71.75;101885.72;5082374;27;45470;-74
2021/06/04 02:32:36;;;;;;;;;26.25;22.00;;;;;19.63;71.40;101895.44;5082326;27;45535;-73
2021/06/04 02:35:06;;;;;;;;;24.00;21.50;;;;;19.65;71.66;101906.91;5086279;27;46298;-74
2021/06/04 02:37:39;;;;;;;;;23.75;20.75;;;;;19.67;71.54;101917.47;5075684;27;45206;-75
2021/06/04 02:40:08;;;;;;;;;20.75;19.75;;;;;19.68;72.54;101916.53;5069249;28;45290;-73
2021/06/04 02:42:49;;;;;;;;;23.75;19.25;;;;;19.66;72.34;101913.06;5071594;27;45436;-73
2021/06/04 02:45:15;;;;;;;;;21.75;21.50;;;;;19.65;72.55;101914.91;5082514;27;45360;-73
2021/06/04 02:47:48;;;;;;;;;20.25;18.25;;;;;19.64;71.90;101941.63;5081972;28;45619;-73
2021/06/04 02:50:38;;;;;;;;;18.00;16.00;;;;;19.63;70.44;101991.44;5076598;27;45439;-71
2021/06/04 02:53:16;;;;;;;;;17.50;16.25;;;;;19.70;70.92;102005.34;5078052;27;45340;-73
2021/06/04 02:55:58;;;;;;;;;18.25;15.75;;;;;19.76;71.26;101989.00;5074085;28;45290;-73
2021/06/04 02:58:23;;;;;;;;;16.00;15.50;;;;;19.83;79.45;101920.16;5080688;28;45540;-73
2021/06/04 03:00:49;;;;;;;;;23.00;19.25;;;;;19.64;83.56;101877.63;5082318;27;45460;-73
2021/06/04 03:03:14;;;;;;;;;18.00;16.75;;;;;19.39;79.75;101865.59;5091994;27;46187;-73
2021/06/04 03:05:40;;;;;;;;;21.00;18.25;;;;;19.25;78.35;101861.88;5080405;28;46953;-73
2021/06/04 03:08:06;;;;;;;;;15.75;14.75;;;;;19.10;82.05;101853.72;5081325;27;45340;-73
2021/06/04 03:10:35;;;;;;;;;25.50;21.25;;;;;18.85;84.88;101843.44;5093382;27;45316;-73
2021/06/04 03:13:02;;;;;;;;;22.50;20.00;;;;;18.64;85.32;101831.13;5081591;27;45401;-73
2021/06/04 03:16:02;;;;;;;;;14.50;13.50;;;;;18.43;87.40;101817.09;5082060;28;46081;-73
2021/06/04 03:18:35;;;;;;;;;16.00;15.00;;;;;18.31;87.77;101808.78;5068111;27;45642;-73
2021/06/04 03:21:05;;;;;;;;;13.75;12.25;;;;;18.27;87.97;101809.00;5091265;27;45481;-72
2021/06/04 03:23:38;;;;;;;;;12.50;11.75;;;;;18.16;88.38;101805.03;5080756;27;45431;-71
2021/06/04 03:26:16;;;;;;;;;10.25;9.50;;;;;18.05;88.71;101802.03;5081387;27;46093;-72
2021/06/04 03:28:43;;;;;;;;;13.50;12.75;;;;;18.02;88.67;101800.38;5081568;27;45868;-73
2021/06/04 03:31:11;;;;;;;;;18.00;12.00;;;;;17.98;88.96;101791.69;5081072;27;45286;-72
2021/06/04 03:33:37;;;;;;;;;15.00;14.00;;;;;17.98;89.09;101785.50;5081493;27;45432;-72
2021/06/04 03:36:07;;;;;;;;;14.50;13.25;;;;;17.94;88.98;101787.44;5076425;27;45536;-72
2021/06/04 03:38:32;;;;;;;;;16.25;14.75;;;;;17.94;89.50;101792.78;5078769;28;45448;-72
2021/06/04 03:40:58;;;;;;;;;20.25;18.50;;;;;17.97;90.12;101789.97;5079847;27;45306;-72
2021/06/04 03:43:26;;;;;;;;;20.00;16.50;;;;;17.96;89.72;101788.22;5079707;27;46132;-72
2021/06/04 03:45:52;;;;;;;;;18.75;15.75;;;;;17.97;89.93;101779.34;5073015;27;45446;-72
2021/06/04 03:48:21;;;;;;;;;17.50;15.25;;;;;18.00;89.40;101789.81;5070497;27;45411;-73
2021/06/04 03:50:51;;;;;;;;;22.00;20.25;;;;;18.02;89.45;101791.53;5077454;27;45338;-72
2021/06/04 03:53:17;;;;;;;;;26.25;23.00;;;;;18.04;90.33;101787.88;5080957;28;45313;-75
2021/06/04 03:55:43;;;;;;;;;36.00;30.50;;;;;18.03;89.67;101782.59;5080747;27;45317;-74
2021/06/04 03:58:09;;;;;;;;;31.25;29.25;;;;;18.00;90.15;101775.66;5080474;27;45371;-76
2021/06/04 04:00:41;;;;;;;;;29.75;25.00;;;;;17.98;90.08;101770.41;5079838;28;45251;-76
2021/06/04 04:03:07;;;;;;;;;29.50;24.75;;;;;17.99;89.88;101771.28;5094000;27;45320;-76
2021/06/04 04:05:33;;;;;;;;;32.50;29.50;;;;;18.01;90.08;101774.72;5080921;27;45352;-76
2021/06/04 04:07:59;;;;;;;;;35.00;32.50;;;;;17.97;90.13;101767.81;5081007;27;45913;-77
2021/06/04 04:10:26;;;;;;;;;37.75;31.75;;;;;17.91;89.60;101766.31;5085601;27;45284;-78
2021/06/04 04:12:52;;;;;;;;;35.75;32.25;;;;;17.90;89.89;101769.94;5088680;27;45529;-76
2021/06/04 04:15:18;;;;;;;;;37.75;32.00;;;;;17.93;90.35;101764.44;5080547;27;48212;-77
2021/06/04 04:17:46;;;;;;;;;33.00;30.50;;;;;17.95;90.45;101770.53;5075946;28;45312;-77
2021/06/04 04:20:17;;;;;;;;;34.75;29.75;;;;;17.95;89.93;101775.03;5079630;27;45479;-77
2021/06/04 04:22:43;;;;;;;;;37.75;32.00;;;;;17.92;89.98;101769.84;5075948;28;46339;-77
2021/06/04 04:25:10;;;;;;;;;42.25;33.00;;;;;17.90;90.06;101777.03;5074832;28;48040;-77
2021/06/04 04:27:35;;;;;;;;;38.50;33.75;;;;;17.89;89.83;101770.84;5073276;28;45478;-77
2021/06/04 04:30:01;;;;;;;;;34.00;31.25;;;;;17.89;90.60;101765.53;5080425;27;45467;-77
2021/06/04 04:32:26;;;;;;;;;39.00;34.25;;;;;17.90;90.64;101767.25;5070657;27;45432;-76
2021/06/04 04:34:54;;;;;;;;;30.75;29.50;;;;;17.92;89.97;101765.38;5075335;28;45467;-76
2021/06/04 04:37:20;;;;;;;;;34.25;30.75;;;;;17.92;90.43;101759.19;5079357;28;45300;-75
2021/06/04 04:39:46;;;;;;;;;34.25;29.50;;;;;17.94;90.52;101768.84;5079994;27;45261;-77
2021/06/04 04:42:15;;;;;;;;;34.00;29.50;;;;;17.95;90.21;101762.56;5080618;27;45285;-78
2021/06/04 04:44:42;;;;;;;;;33.50;30.75;;;;;17.96;90.56;101766.97;5080304;27;46150;-76
2021/06/04 04:47:12;;;;;;;;;32.75;28.00;;;;;17.96;90.11;101761.63;5080719;28;45308;-75
2021/06/04 04:49:38;;;;;;;;;38.50;31.50;;;;;17.97;90.60;101760.72;5079435;27;45470;-78
2021/06/04 04:52:11;;;;;;;;;30.25;29.00;;;;;18.03;90.91;101756.00;5078915;28;47452;-78
2021/06/04 04:54:38;;;;;;;;;32.00;29.25;;;;;18.10;91.05;101758.31;5078724;28;47991;-78
2021/06/04 04:57:05;;;;;;;;;37.25;32.25;;;;;18.13;90.52;101759.94;5080369;27;45243;-79
2021/06/04 04:59:30;;;;;;;;;29.50;28.75;;;;;18.16;90.83;101745.63;5076895;27;45472;-79
2021/06/04 05:01:56;;;;;;;;;31.50;29.75;;;;;18.21;90.38;101748.97;5069524;27;45226;-75
2021/06/04 05:04:21;;;;;;;;;38.50;31.00;;;;;18.25;91.02;101742.53;5089008;27;45347;-77
2021/06/04 05:06:47;;;;;;;;;33.00;27.75;;;;;18.25;90.08;101733.72;5080186;27;45320;-79
2021/06/04 05:09:12;;;;;;;;;31.25;29.50;;;;;18.22;90.62;101735.56;5079363;27;45312;-79
2021/06/04 05:11:38;;;;;;;;;30.00;23.00;;;;;18.26;90.40;101793.97;5080333;27;45262;-79
2021/06/04 05:14:04;;;;;;;;;25.00;23.50;;;;;18.54;90.38;101869.81;5093645;27;45418;-77
2021/06/04 05:16:30;;;;;;;;;26.25;24.00;;;;;18.72;89.12;101877.81;5079994;28;45688;-78
2021/06/04 05:18:55;;;;;;;;;28.50;25.75;;;;;18.84;89.32;101869.19;5080265;27;45460;-77
2021/06/04 05:21:21;;;;;;;;;26.75;25.75;;;;;18.92;90.02;101855.50;5082597;27;45846;-78
2021/06/04 05:23:47;;;;;;;;;27.75;23.75;;;;;18.96;89.75;101862.41;5076937;27;45302;-79
2021/06/04 05:26:13;;;;;;;;;23.25;23.25;;;;;19.12;89.02;101905.13;5079238;28;45455;-79
2021/06/04 05:28:39;;;;;;;;;21.50;18.75;;;;;19.23;88.70;101922.41;5075985;27;45741;-73
2021/06/04 05:31:08;;;;;;;;;25.75;22.50;;;;;19.33;87.87;101934.28;5087434;27;45313;-73
2021/06/04 05:33:38;;;;;;;;;15.25;13.00;;;;;19.36;89.21;101930.59;5071178;27;48448;-73
2021/06/04 05:36:12;;;;;;;;;20.50;14.50;;;;;19.39;89.18;101921.59;5073078;28;45450;-73
2021/06/04 05:38:37;;;;;;;;;13.00;9.25;;;;;19.43;88.22;101952.50;5076867;27;45554;-73
2021/06/04 05:41:03;;;;;;;;;7.00;5.25;;;;;19.42;88.84;101948.97;5071048;27;45965;-73
2021/06/04 05:43:39;;;;;;;;;10.50;9.50;;;;;19.38;89.38;101930.53;5072263;28;45214;-73
2021/06/04 05:46:06;;;;;;;;;5.00;4.00;;;;;19.23;89.30;101928.59;5082790;27;45535;-73
2021/06/04 05:48:32;;;;;;;;;4.50;4.50;;;;;19.15;89.35;101929.88;5078115;28;45251;-73
2021/06/04 05:51:02;;;;;;;;;4.75;4.00;;;;;19.01;89.04;101910.97;5077167;27;45552;-73
2021/06/04 05:53:34;;;;;;;;;4.75;4.75;;;;;18.82;89.44;101892.41;5063818;28;47729;-72
2021/06/04 05:56:03;;;;;;;;;2.75;2.75;;;;;18.63;89.25;101897.78;5067253;27;45592;-72
2021/06/04 05:58:30;;;;;;;;;4.50;2.75;;;;;18.47;89.34;101884.38;5082331;28;45209;-73
2021/06/04 06:00:59;;;;;;;;;6.75;4.00;;;;;18.28;89.38;101866.59;5071307;27;45428;-73
2021/06/04 06:03:28;;;;;;;;;3.75;3.75;;;;;18.20;90.03;101875.81;5070395;28;45358;-73
2021/06/04 06:05:55;;;;;;;;;4.00;4.00;;;;;18.14;90.38;101878.75;5069627;27;45388;-73
2021/06/04 06:08:20;;;;;;;;;3.25;2.50;;;;;18.07;89.94;101880.84;5072442;27;45599;-72
2021/06/04 06:10:46;;;;;;;;;5.75;5.25;;;;;18.06;90.24;101892.41;5080438;27;45351;-72
2021/06/04 06:13:12;;;;;;;;;5.25;5.25;;;;;18.02;90.04;101893.50;5072345;28;45447;-72
2021/06/04 06:15:38;;;;;;;;;6.50;5.50;;;;;18.02;89.88;101888.16;5080366;28;45432;-72
2021/06/04 06:18:04;;;;;;;;;6.50;5.50;;;;;18.06;90.41;101895.06;5089427;27;45408;-72
2021/06/04 06:20:32;;;;;;;;;5.00;5.00;;;;;18.10;90.84;101879.81;5080035;27;45326;-72
2021/06/04 06:22:58;;;;;;;;;10.25;8.50;;;;;18.11;90.96;101886.84;5076727;28;46311;-72
2021/06/04 06:25:30;;;;;;;;;21.00;18.50;;;;;18.14;90.68;101886.72;5091194;27;46057;-73
2021/06/04 06:27:58;;;;;;;;;29.00;16.00;;;;;18.11;90.50;101868.25;5084493;27;45362;-72
2021/06/04 06:30:25;;;;;;;;;6.50;6.00;;;;;18.07;90.42;101864.88;5082201;27;45412;-72
2021/06/04 06:32:51;;;;;;;;;9.50;7.50;;;;;18.04;90.64;101858.81;5081133;27;48136;-72
2021/06/04 06:35:22;;;;;;;;;5.00;5.00;;;;;18.04;91.01;101848.19;5095808;27;45462;-72
2021/06/04 06:37:47;;;;;;;;;25.50;16.25;;;;;18.05;90.88;101852.59;5081004;27;45597;-72
2021/06/04 06:40:13;;;;;;;;;11.25;8.00;;;;;18.06;90.68;101841.84;5080106;28;47228;-73
2021/06/04 06:42:38;;;;;;;;;16.50;8.75;;;;;18.11;91.06;101841.63;5082400;28;45281;-72
2021/06/04 06:45:08;;;;;;;;;12.25;7.25;;;;;18.14;90.67;101852.13;5080984;28;45250;-72
2021/06/04 06:47:34;;;;;;;;;7.50;5.50;;;;;18.15;91.17;101869.81;5077626;27;45302;-72
2021/06/04 06:50:00;;;;;;;;;4.75;4.75;;;;;18.19;91.00;101868.78;5075282;28;46343;-72
2021/06/04 06:52:25;;;;;;;;;5.00;5.00;;;;;18.24;90.97;101891.63;5082480;28;45292;-72
2021/06/04 06:54:51;;;;;;;;;3.00;3.00;;;;;18.27;90.56;101902.97;5081860;27;45192;-72
2021/06/04 06:57:16;;;;;;;;;4.00;4.00;;;;;18.35;91.17;101899.97;5091163;27;45247;-72
2021/06/04 06:59:42;;;;;;;;;5.25;5.00;;;;;18.43;91.26;101903.13;5081385;27;45471;-72
2021/06/04 07:02:11;;;;;;;;;3.50;3.00;;;;;18.50;90.75;101903.69;5090681;27;47292;-72
2021/06/04 07:04:37;;;;;;;;;4.25;2.75;;;;;18.58;91.48;101902.44;5080888;28;45577;-72
2021/06/04 07:07:04;;;;;;;;;4.25;4.25;;;;;18.66;91.40;101911.81;5081817;27;45352;-72
2021/06/04 07:09:30;;;;;;;;;5.00;5.00;;;;;18.74;90.95;101911.41;5081384;28;45361;-73
2021/06/04 07:11:56;;;;;;;;;4.75;4.75;;;;;18.81;90.60;101906.66;5081655;27;45496;-72
2021/06/04 07:14:34;;;;;;;;;6.75;4.25;;;;;18.83;90.65;101904.78;5081783;27;45219;-72
2021/06/04 07:17:03;;;;;;;;;6.25;5.50;;;;;18.91;91.20;101904.41;5081717;27;45432;-72
2021/06/04 07:19:29;;;;;;;;;5.25;5.25;;;;;19.00;91.28;101898.63;5077894;28;46310;-72
2021/06/04 07:21:55;;;;;;;;;6.75;6.00;;;;;19.07;90.80;101896.50;5081794;28;45981;-72
2021/06/04 07:24:22;;;;;;;;;4.50;3.75;;;;;19.08;90.74;101889.38;5073666;27;45603;-72
2021/06/04 07:26:53;;;;;;;;;3.00;3.00;;;;;19.12;91.24;101901.56;5065266;28;45269;-72
2021/06/04 07:29:20;;;;;;;;;3.25;2.50;;;;;19.22;90.86;101899.34;5079938;28;45340;-72
2021/06/04 07:31:46;;;;;;;;;4.50;3.25;;;;;19.32;90.74;101889.94;5067550;28;45466;-72
2021/06/04 07:34:13;;;;;;;;;1.50;1.50;;;;;19.41;90.78;101887.75;5080436;28;45204;-72
2021/06/04 07:36:42;;;;;;;;;4.25;2.50;;;;;19.52;91.09;101898.69;5080465;28;45281;-72
2021/06/04 07:39:11;;;;;;;;;2.75;2.75;;;;;19.63;90.50;101898.09;5069016;27;45480;-72
2021/06/04 07:41:37;;;;;;;;;3.00;3.00;;;;;19.59;89.74;101893.00;5078861;27;46198;-72
2021/06/04 07:44:03;;;;;;;;;3.75;3.00;;;;;19.55;90.16;101898.53;5079815;27;45435;-72
2021/06/04 07:46:29;;;;;;;;;2.00;2.00;;;;;19.63;89.92;101900.75;5081359;28;45144;-72
2021/06/04 07:48:55;;;;;;;;;2.25;2.25;;;;;19.73;90.52;101906.47;5078995;27;45490;-72
2021/06/04 07:51:28;;;;;;;;;4.00;4.00;;;;;19.84;90.57;101894.38;5081030;27;46026;-72
2021/06/04 07:53:54;;;;;;;;;3.00;2.75;;;;;19.95;90.42;101896.47;5078259;27;45386;-72
2021/06/04 07:56:20;;;;;;;;;6.00;4.00;;;;;19.97;89.50;101884.75;5081243;28;45281;-72
2021/06/04 07:58:46;;;;;;;;;4.25;3.75;;;;;19.90;89.27;101891.38;5081151;27;45627;-72
2021/06/04 08:01:13;;;;;;;;;6.00;4.25;;;;;19.83;89.69;101890.00;5075577;27;45233;-72
2021/06/04 08:03:38;;;;;;;;;4.00;3.00;;;;;19.86;90.47;101877.34;5070281;28;45482;-72
2021/06/04 08:06:05;;;;;;;;;2.50;2.50;;;;;19.87;89.48;101878.22;5078538;27;45349;-72
2021/06/04 08:08:31;;;;;;;;;5.00;5.00;;;;;19.86;89.70;101872.00;5077371;27;45982;-72
2021/06/04 08:10:57;;;;;;;;;2.00;2.00;;;;;19.87;89.37;101862.19;5078437;27;46159;-72
2021/06/04 08:13:23;;;;;;;;;2.00;2.00;;;;;19.92;89.36;101865.47;5066507;28;45502;-72
2021/06/04 08:15:59;;;;;;;;;2.00;2.00;;;;;19.90;89.32;101862.03;5079188;28;45889;-72
2021/06/04 08:18:28;;;;;;;;;3.25;3.25;;;;;19.86;89.22;101868.47;5073550;28;46082;-72
2021/06/04 08:20:54;;;;;;;;;3.25;3.25;;;;;19.87;89.28;101875.53;5080482;27;45329;-72
2021/06/04 08:23:29;;;;;;;;;5.50;3.75;;;;;19.88;89.44;101869.22;5078872;27;45556;-72
2021/06/04 08:25:57;;;;;;;;;3.00;3.00;;;;;19.91;89.49;101863.75;5079806;27;45318;-72
2021/06/04 08:28:24;;;;;;;;;5.25;4.25;;;;;20.00;89.85;101871.22;5075819;27;45633;-72
2021/06/04 08:30:50;;;;;;;;;3.00;3.00;;;;;20.05;89.38;101862.13;5078902;27;46745;-72
2021/06/04 08:38:32;;;;;;;;;7.50;6.75;;;;;20.18;89.61;101881.88;5677216;22;45913;-80
2021/06/04 08:41:25;;;;;;;;;4.75;4.75;;;;;20.30;89.96;101890.13;5031984;28;46290;-79
2021/06/04 08:44:42;;;;;;;;;5.50;4.50;;;;;20.39;89.35;101878.94;5039016;28;45622;-79
2021/06/04 08:47:16;;;;;;;;;5.00;5.00;;;;;20.51;89.35;101873.84;4980697;28;45239;-79
2021/06/04 08:50:00;;;;;;;;;6.00;6.00;;;;;20.57;89.22;101860.97;5019956;28;45421;-79
2021/06/04 08:52:40;;;;;;;;;4.00;4.00;;;;;20.60;88.57;101864.41;5019011;28;45413;-79
2021/06/04 08:55:24;;;;;;;;;4.00;3.00;;;;;20.67;87.23;101874.66;5004430;28;45583;-78
2021/06/04 08:57:49;;;;;;;;;5.75;4.50;;;;;20.74;87.41;101871.66;5032127;28;45458;-79
2021/06/04 09:00:26;;;;;;;;;6.00;6.00;;;;;20.87;82.43;101867.28;5034728;28;45430;-79
2021/06/04 09:02:57;;;;;;;;;6.25;6.25;;;;;20.98;80.13;101873.81;5017796;28;45497;-79
2021/06/04 09:05:39;;;;;;;;;6.00;6.00;;;;;21.10;78.22;101872.25;5018397;28;45721;-79
2021/06/04 09:08:09;;;;;;;;;6.75;6.00;;;;;21.18;78.53;101877.13;5034376;28;45448;-78
2021/06/04 09:10:45;;;;;;;;;5.75;5.00;;;;;21.26;76.71;101872.16;5038577;28;45795;-82
2021/06/04 09:13:14;;;;;;;;;5.00;5.00;;;;;21.35;76.12;101876.97;5039322;28;45635;-82
2021/06/04 09:15:43;;;;;;;;;5.00;4.00;;;;;21.44;75.40;101869.31;5039468;28;45288;-82
2021/06/04 09:18:28;;;;;;;;;5.25;5.25;;;;;21.55;75.95;101872.22;5020954;28;45471;-83
2021/06/04 09:21:02;;;;;;;;;8.25;6.00;;;;;21.67;76.57;101875.94;5039457;28;45284;-84
2021/06/04 09:23:33;;;;;;;;;8.25;8.25;;;;;21.78;76.36;101880.59;5037766;28;48338;-84
2021/06/04 09:26:00;;;;;;;;;7.75;6.75;;;;;21.85;73.99;101886.44;5039598;28;45437;-88
2021/06/04 09:28:31;;;;;;;;;7.25;7.25;;;;;21.91;75.37;101887.88;5019556;28;45682;-85
2021/06/04 09:31:22;;;;;;;;;9.50;7.00;;;;;21.98;75.23;101889.19;5038093;28;45421;-82
2021/06/04 09:33:50;;;;;;;;;11.25;8.00;;;;;22.07;74.80;101889.59;5038946;28;45477;-82
2021/06/04 09:36:25;;;;;;;;;6.75;6.50;;;;;22.10;74.90;101886.72;5021037;28;45334;-83
2021/06/04 09:39:02;;;;;;;;;7.50;7.50;;;;;22.12;73.84;101882.13;5038316;28;45537;-83
2021/06/04 09:41:46;;;;;;;;;6.25;6.25;;;;;22.16;74.88;101886.31;5030919;28;45514;-83
2021/06/04 09:44:18;;;;;;;;;9.25;8.75;;;;;22.23;74.13;101892.13;5003540;28;48220;-83
2021/06/04 09:47:07;;;;;;;;;9.00;8.25;;;;;22.29;73.95;101893.56;5031194;28;45335;-82
2021/06/04 09:49:41;;;;;;;;;8.00;7.00;;;;;22.32;74.35;101890.69;5038792;28;45323;-85
2021/06/04 09:52:24;;;;;;;;;9.25;8.50;;;;;22.35;74.06;101895.81;5036110;28;45292;-85
2021/06/04 09:55:13;;;;;;;;;12.00;10.00;;;;;22.35;73.93;101895.81;5037844;28;45554;-85
2021/06/04 09:57:57;;;;;;;;;8.50;8.25;;;;;22.40;74.15;101899.06;5037269;28;45863;-83
2021/06/04 10:00:48;;;;;;;;;7.00;5.50;;;;;22.44;73.35;101899.72;5037343;28;45342;-85
2021/06/04 10:03:22;;;;;;;;;6.75;6.75;;;;;22.47;73.60;101907.56;5022084;28;45609;-91
2021/06/04 10:05:50;;;;;;;;;8.25;6.50;;;;;22.48;73.23;101907.44;5039120;28;45327;-91
2021/06/04 10:08:27;;;;;;;;;6.75;5.25;;;;;22.55;72.83;101905.22;5037449;28;45746;-91
2021/06/04 10:11:08;;;;;;;;;3.75;3.75;;;;;22.64;73.63;101903.78;5039365;28;45250;-91
2021/06/04 10:13:41;;;;;;;;;3.00;3.00;;;;;22.76;72.90;101904.81;5039045;28;45238;-91
2021/06/04 10:19:30;;;;;;;;;5.25;4.25;;;;;23.06;73.26;101912.69;5018479;28;45520;-92
2021/06/04 10:22:04;;;;;;;;;4.25;4.00;;;;;23.18;72.21;101905.63;5019283;28;45478;-91
2021/06/04 10:24:44;;;;;;;;;3.25;3.25;;;;;23.23;71.09;101906.16;5030192;28;45498;-91
2021/06/04 10:27:14;;;;;;;;;5.25;4.50;;;;;23.25;70.37;101907.78;5021114;28;47085;-92
2021/06/04 10:29:40;;;;;;;;;4.25;4.00;;;;;23.22;70.48;101907.97;5034224;28;45852;-91
2021/06/04 10:32:18;;;;;;;;;4.00;3.50;;;;;23.19;71.01;101905.50;5022170;28;45231;-89
2021/06/04 10:35:01;;;;;;;;;5.00;5.00;;;;;23.14;70.09;101910.31;5040738;28;46320;-89
2021/06/04 10:37:46;;;;;;;;;4.00;4.00;;;;;23.07;71.10;101911.72;5041979;28;45332;-89
2021/06/04 10:40:18;;;;;;;;;5.50;5.50;;;;;22.99;70.15;101913.09;5042270;28;45485;-89
2021/06/04 10:43:04;;;;;;;;;4.00;4.00;;;;;22.91;70.33;101919.00;5042123;28;45324;-89
2021/06/04 10:45:37;;;;;;;;;5.00;5.00;;;;;22.85;70.24;101922.06;5040843;28;46042;-89
2021/06/04 10:48:33;;;;;;;;;5.25;5.25;;;;;22.82;71.00;101919.59;5026839;28;47526;-88
2021/06/04 10:51:32;;;;;;;;;8.25;5.75;;;;;22.84;70.75;101922.19;5041737;28;45280;-88
2021/06/04 10:54:35;;;;;;;;;6.00;6.00;;;;;22.87;71.20;101921.97;5041835;28;45546;-88
2021/06/04 10:57:03;;;;;;;;;5.50;5.50;;;;;22.89;71.03;101920.06;5042054;28;46110;-87
2021/06/04 10:59:35;;;;;;;;;5.75;5.75;;;;;22.90;70.74;101914.59;5024420;28;45198;-88
2021/06/04 11:02:33;;;;;;;;;6.25;6.25;;;;;22.89;70.69;101910.19;5030573;28;45469;-88
2021/06/04 11:05:19;;;;;;;;;6.75;6.00;;;;;22.88;70.65;101918.34;5040467;28;45242;-88
2021/06/04 11:07:54;;;;;;;;;6.00;6.00;;;;;22.93;70.54;101917.06;5010065;28;46530;-88
2021/06/04 11:10:33;;;;;;;;;6.00;5.00;;;;;23.01;71.03;101913.00;5023803;28;47285;-88
2021/06/04 11:13:01;;;;;;;;;8.00;5.50;;;;;23.08;70.46;101911.63;5041357;28;45596;-89
2021/06/04 11:15:53;;;;;;;;;9.25;6.00;;;;;23.15;69.44;101912.06;5042064;28;45303;-88
2021/06/04 11:18:35;;;;;;;;;4.25;4.25;;;;;23.20;69.89;101911.72;5041472;28;45521;-88
2021/06/04 11:21:03;;;;;;;;;7.00;6.00;;;;;23.24;69.07;101897.13;5041401;28;45437;-88
2021/06/04 11:23:52;;;;;;;;;4.00;4.00;;;;;23.29;68.92;101899.50;5040770;28;45461;-88
2021/06/04 11:26:27;;;;;;;;;5.00;5.00;;;;;23.29;69.28;101899.50;5041669;28;45171;-88
2021/06/04 11:29:08;;;;;;;;;5.00;5.00;;;;;23.26;69.06;101905.97;5041440;28;45492;-88
2021/06/04 11:31:44;;;;;;;;;6.00;5.00;;;;;23.18;68.83;101900.25;5040815;28;45704;-87
2021/06/04 11:34:25;;;;;;;;;3.25;3.25;;;;;23.05;68.37;101909.16;5024014;28;45458;-88
2021/06/04 11:36:51;;;;;;;;;2.00;1.00;;;;;22.95;67.56;101900.88;5040229;28;45322;-88
2021/06/04 11:39:30;;;;;;;;;1.25;1.25;;;;;22.91;67.84;101907.41;5039313;28;46189;-88
2021/06/04 11:41:59;;;;;;;;;3.00;2.00;;;;;22.91;68.39;101907.41;5039571;28;48211;-88
2021/06/04 11:44:29;;;;;;;;;4.00;3.00;;;;;22.92;67.59;101898.38;5040414;28;45246;-88
2021/06/04 11:47:29;;;;;;;;;2.75;2.75;;;;;23.00;67.53;101905.91;5033673;28;45750;-88